Aérodrome :
LOGIN :

S'inscrire | Disclaimer

   EN    FR    IT 

 










Légende :    VFR   VFR Marginal   IFR   IFR Intensif   IFR Très Intensif
Visi : 
Plafond : 
>= 8 km
>= 3000ft
5 à 8 km
1000 à 3000 ft
1500m à 5 km
500 à 1000 ft
800 à 1500m
200 à 500 ft
< 800m
< 200 ft
Symboles :   Orages  Brouillard  Fortes neiges  Fortes précipitations  Vent > 20 kt
SIGMETs :   Divers  Orages  Givrage  Turbulence  Onde Orograph.  Cendres Volcan.






- Altitude de l'aérodrome : 75 ft
- Code IATA : YEO


EGDY - RNAS Yeovilton

DERNIER METAR :
  • 221450Z 12010KT 9000 -RA FEW012 BKN020 09/08 Q0990 BECMG 9999 NSW BKN030 RMK WHT BECMG BLU

METARs EXPIRÉS :
  • 221420Z 12012KT 9999 -RA SCT012 BKN020 09/07 Q0990 BECMG 9999 NSW BKN030 RMK GRN BECMG BLU
  • 221350Z 12011KT 9999 -RA SCT012 BKN020 09/08 Q0990 BECMG 9999 NSW BKN030 RMK GRN BECMG BLU
  • 221320Z 07007KT 9999 -RA SCT012 BKN020 08/07 Q0991 BECMG 9999 NSW BKN030 RMK GRN BECMG BLU
  • 221250Z 06008KT 9999 RA SCT012 BKN020 07/06 Q0991 NOSIG RMK GRN GRN

TAF TAF EGDY
Valide du 22 à 12h jusqu'au 22 à 21h UTC


221055Z 2212/2221 14010KT 9999 BKN025
TEMPO 2212/2216 6000 RA BKN020
PROB40
TEMPO 2212/2216 4000 +SHRA SCT010 BKN018CB
BECMG 2217/2219 11010G25KT



MET'MAP, la Météo Aéronautique d'un coup d'oeil ! - Copyright ORBIFLY Décembre 2007 - Disclaimer

ORBIFLY MET'MAP TEAM :

Programmation & Développement : Alexandra Zaïnal
Conception & Développement : Baudouin d'Aumeries
Co-Programmation & Développement : Marc-Olivier Méhu
Soutien technique & logistique : Manuel Goepfert

Contact : metmap@orbifly.com




SOURCES & CREDITS :

   NOAA